LIRP/PSA METAR and TAF weather

Enter ICAO airport designator
Station Type Date Time Source
LIRP METAR 2021/07/24 20:15 UTC NOAA

LIRP 242015Z 12005KT 9999 BKN070 25/17 Q1011 NOSIG


Station Type Date Time Source
LIRP Decoded METAR 2021/07/24 20:15 UTC NOAA

Pisa / S. Giusto, Italy (LIRP) 43-41N 010-23E 6M
Jul 24, 2021 - 04:15 PM EDT / 2021.07.24 2015 UTC
Wind: from the ESE (120 degrees) at 6 MPH (5 KT):0
Visibility: greater than 7 mile(s):0
Sky conditions: mostly cloudy
Temperature: 77 F (25 C)
Dew Point: 62 F (17 C)
Relative Humidity: 61%
Pressure (altimeter): 29.85 in. Hg (1011 hPa)
ob: LIRP 242015Z 12005KT 9999 BKN070 25/17 Q1011 NOSIG
cycle: 20

Station Type Date Time Source
LIRP TAF 2021/07/24 18:21 UTC NOAA

TAF LIRP 241700Z 2418/2518 24010KT 9999 FEW060
BECMG 2418/2420 11008KT
BECMG 2510/2512 24012KT

Example: see airport list